TimeCDT,TemperatureF,Dew PointF,Humidity,Sea Level PressureIn,VisibilityMPH,Wind Direction,Wind SpeedMPH,Gust SpeedMPH,PrecipitationIn,Events,Conditions,WindDirDegrees,DateUTC
12:35 AM,61.9,51.4,69,29.96,10.0,NE,5.8,-,N/A,,Clear,40,2013-05-10 05:35:00
12:55 AM,61.9,52.2,70,29.98,10.0,North,9.2,-,N/A,,Clear,10,2013-05-10 05:55:00
1:15 AM,62.4,52.9,71,30.02,10.0,North,5.8,-,N/A,Thunderstorm,Scattered Clouds,360,2013-05-10 06:15:00
1:35 AM,62.8,54.0,73,30.04,10.0,WNW,11.5,-,N/A,Thunderstorm,Mostly Cloudy,290,2013-05-10 06:35:00
1:55 AM,62.8,56.1,79,30.05,10.0,NW,18.4,27.6,N/A,Thunderstorm,Overcast,310,2013-05-10 06:55:00
2:15 AM,61.9,56.8,84,30.01,10.0,North,17.3,25.3,0.01,,Overcast,360,2013-05-10 07:15:00
2:35 AM,59.9,55.4,85,30.00,10.0,North,18.4,23.0,0.03,Thunderstorm,Mostly Cloudy,360,2013-05-10 07:35:00
2:55 AM,61.0,54.5,79,29.98,10.0,North,19.6,26.5,0.03,,Scattered Clouds,10,2013-05-10 07:55:00
3:15 AM,61.3,55.2,80,29.96,10.0,NNE,15.0,25.3,N/A,,Clear,30,2013-05-10 08:15:00
3:55 AM,60.8,55.8,83,29.96,10.0,North,8.1,-,N/A,,Clear,360,2013-05-10 08:55:00
4:15 AM,60.8,55.4,82,29.97,10.0,North,5.8,-,N/A,,Clear,10,2013-05-10 09:15:00
4:35 AM,61.2,54.5,79,29.97,10.0,Calm,Calm,-,N/A,,Clear,0,2013-05-10 09:35:00
4:55 AM,61.2,54.3,78,29.96,10.0,Calm,Calm,-,N/A,,Clear,0,2013-05-10 09:55:00
5:15 AM,59.4,53.2,80,29.97,10.0,WSW,6.9,-,N/A,,Clear,240,2013-05-10 10:15:00
5:35 AM,56.5,53.2,89,29.99,10.0,WNW,6.9,-,N/A,,Clear,300,2013-05-10 10:35:00
5:55 AM,56.8,54.0,90,30.02,10.0,West,8.1,-,N/A,,Clear,270,2013-05-10 10:55:00
6:15 AM,56.8,54.1,91,30.03,10.0,WNW,8.1,-,N/A,,Clear,300,2013-05-10 11:15:00
6:35 AM,57.4,54.3,90,30.03,10.0,NW,9.2,-,N/A,,Scattered Clouds,310,2013-05-10 11:35:00
7:15 AM,58.3,54.7,88,30.03,10.0,NNW,9.2,-,N/A,,Clear,330,2013-05-10 12:15:00
7:35 AM,59.5,54.5,83,30.03,10.0,NNW,10.4,-,N/A,,Clear,340,2013-05-10 12:35:00
8:35 AM,62.2,55.4,78,30.06,10.0,North,12.7,-,N/A,,Clear,350,2013-05-10 13:35:00
8:55 AM,63.3,55.9,77,30.06,10.0,North,17.3,23.0,N/A,,Clear,360,2013-05-10 13:55:00
9:15 AM,63.9,56.3,76,30.07,10.0,North,18.4,23.0,N/A,,Scattered Clouds,360,2013-05-10 14:15:00
9:35 AM,63.7,56.1,76,30.08,10.0,NNE,15.0,21.9,N/A,,Mostly Cloudy,20,2013-05-10 14:35:00
9:55 AM,63.9,55.9,75,30.08,10.0,NNE,11.5,20.7,N/A,,Scattered Clouds,20,2013-05-10 14:55:00
10:15 AM,65.3,56.1,72,30.08,10.0,NNE,13.8,20.7,N/A,,Scattered Clouds,30,2013-05-10 15:15:00
10:35 AM,66.9,56.1,68,30.08,10.0,NNE,12.7,21.9,N/A,,Scattered Clouds,20,2013-05-10 15:35:00
10:55 AM,68.2,56.3,66,30.09,10.0,NNE,16.1,19.6,N/A,,Clear,20,2013-05-10 15:55:00
11:15 AM,68.9,56.1,64,30.09,10.0,NNE,13.8,19.6,N/A,,Clear,30,2013-05-10 16:15:00
11:35 AM,69.4,55.9,62,30.09,10.0,NNE,15.0,20.7,N/A,,Scattered Clouds,20,2013-05-10 16:35:00
12:15 PM,70.7,55.6,59,30.10,10.0,North,11.5,-,N/A,,Mostly Cloudy,10,2013-05-10 17:15:00
12:35 PM,71.8,55.4,56,30.10,10.0,NNE,10.4,16.1,N/A,,Scattered Clouds,20,2013-05-10 17:35:00
12:55 PM,73.6,55.0,52,30.08,10.0,North,12.7,18.4,N/A,,Scattered Clouds,10,2013-05-10 17:55:00
1:15 PM,74.7,54.5,49,30.08,10.0,North,13.8,19.6,N/A,,Scattered Clouds,350,2013-05-10 18:15:00
1:35 PM,75.0,53.8,47,30.08,10.0,NNE,11.5,-,N/A,,Scattered Clouds,20,2013-05-10 18:35:00
1:55 PM,75.2,52.9,46,30.08,10.0,North,11.5,19.6,N/A,,Scattered Clouds,350,2013-05-10 18:55:00
2:15 PM,75.0,53.2,47,30.08,10.0,North,11.5,17.3,N/A,,Scattered Clouds,10,2013-05-10 19:15:00
2:35 PM,75.4,52.7,45,30.08,10.0,North,13.8,17.3,N/A,,Scattered Clouds,350,2013-05-10 19:35:00
2:55 PM,75.9,51.8,43,30.08,10.0,NW,8.1,12.7,N/A,,Scattered Clouds,310,2013-05-10 19:55:00
3:15 PM,76.3,51.1,41,30.08,10.0,NNW,10.4,-,N/A,,Scattered Clouds,340,2013-05-10 20:15:00
3:35 PM,76.1,50.4,40,30.06,10.0,NNW,12.7,-,N/A,,Scattered Clouds,330,2013-05-10 20:35:00
3:55 PM,76.5,50.0,39,30.06,10.0,North,11.5,19.6,N/A,,Scattered Clouds,360,2013-05-10 20:55:00
4:15 PM,75.7,49.8,40,30.05,10.0,North,10.4,19.6,N/A,,Scattered Clouds,360,2013-05-10 21:15:00
4:35 PM,75.4,49.5,40,30.05,10.0,North,10.4,18.4,N/A,,Clear,360,2013-05-10 21:35:00
4:55 PM,75.6,49.3,39,30.05,10.0,North,11.5,17.3,N/A,,Scattered Clouds,360,2013-05-10 21:55:00
5:15 PM,75.4,49.3,40,30.04,10.0,North,13.8,18.4,N/A,,Scattered Clouds,10,2013-05-10 22:15:00
5:35 PM,74.5,49.3,41,30.04,10.0,NNE,12.7,-,N/A,,Scattered Clouds,30,2013-05-10 22:35:00
5:55 PM,73.8,49.3,42,30.04,10.0,NNE,10.4,-,N/A,,Clear,20,2013-05-10 22:55:00
6:15 PM,73.4,49.3,42,30.05,10.0,NNE,9.2,18.4,N/A,,Clear,20,2013-05-10 23:15:00
6:35 PM,72.7,49.5,44,30.05,10.0,NNE,12.7,-,N/A,,Clear,20,2013-05-10 23:35:00
6:55 PM,72.5,49.1,44,30.05,10.0,NNE,12.7,19.6,N/A,,Clear,30,2013-05-10 23:55:00
7:15 PM,72.5,48.7,43,30.06,10.0,NNE,10.4,-,N/A,,Clear,30,2013-05-11 00:15:00
7:35 PM,71.4,48.9,45,30.06,10.0,NNE,10.4,-,N/A,,Clear,30,2013-05-11 00:35:00
7:55 PM,70.5,48.4,45,30.06,10.0,NE,9.2,-,N/A,,Clear,40,2013-05-11 00:55:00
8:15 PM,69.4,48.4,47,30.07,10.0,NNE,6.9,-,N/A,,Clear,20,2013-05-11 01:15:00
8:55 PM,66.0,50.2,57,30.08,10.0,North,3.5,-,N/A,,Clear,10,2013-05-11 01:55:00
9:15 PM,64.9,50.4,59,30.09,10.0,Calm,Calm,-,N/A,,Clear,0,2013-05-11 02:15:00
9:35 PM,64.0,50.7,62,30.11,10.0,Calm,Calm,-,N/A,,Clear,0,2013-05-11 02:35:00
9:55 PM,63.7,50.4,62,30.12,10.0,North,3.5,-,N/A,,Clear,360,2013-05-11 02:55:00
10:15 PM,63.5,50.7,63,30.12,10.0,North,5.8,-,N/A,,Clear,360,2013-05-11 03:15:00
10:35 PM,62.2,50.2,65,30.13,10.0,North,6.9,-,N/A,,Clear,360,2013-05-11 03:35:00
10:55 PM,60.3,50.0,69,30.13,10.0,North,4.6,-,N/A,,Clear,10,2013-05-11 03:55:00
11:15 PM,61.2,50.7,69,30.13,10.0,North,5.8,-,N/A,,Clear,10,2013-05-11 04:15:00
11:35 PM,61.0,50.9,69,30.14,10.0,North,4.6,-,N/A,,Clear,360,2013-05-11 04:35:00
11:55 PM,59.9,50.5,71,30.14,10.0,North,4.6,-,N/A,,Clear,350,2013-05-11 04:55:00